Terminal Aerodrome Forecast
Issued by NWS Birmingham, AL

Home | Current Version | Previous Version | Text Only | Print | Product List | Glossary On
Versions: 1 2 3 4 5 6 7 8 9 10 11 12 13 14
978
FTUS44 KBMX 291730
TAFBHM
TAF
KBHM 291730Z 2918/3018 15012G22KT P6SM SCT040 BKN050
     FM300100 16012KT P6SM SCT060 SCT250
     FM301200 16012G24KT P6SM OVC015
     FM301700 16015G28KT P6SM OVC050=

USA.gov is the U.S. government's official web portal to all federal, state and local government web resources and services.